Time;durP1;ratioP1;P1;durP2;ratioP2;P2;SDS_P1;SDS_P2;PMS_P1;PMS_P2;Temp;Humidity;BMP_temperature;BMP_pressure;BME280_temperature;BME280_humidity;BME280_pressure;Samples;Min_cycle;Max_cycle;Signal;HPM_P1;HPM_P2
2023/02/21 02:16:42;;;;;;;;;10.00;9.00;26.90;32.40;;;;;;109869;1250;55493;-63
2023/02/21 02:19:27;;;;;;;;;11.00;10.00;26.90;32.40;;;;;;109445;1262;53864;-65
2023/02/21 02:22:34;;;;;;;;;10.00;9.00;26.80;32.60;;;;;;109312;1263;50293;-64
2023/02/21 02:25:06;;;;;;;;;11.75;9.50;26.80;32.10;;;;;;109779;1254;50277;-64
2023/02/21 02:28:09;;;;;;;;;12.00;11.00;26.70;32.00;;;;;;110175;1254;45888;-66
2023/02/21 02:30:52;;;;;;;;;11.50;10.50;26.70;32.00;;;;;;110110;1254;56705;-66
2023/02/21 02:33:43;;;;;;;;;10.50;9.50;26.70;32.10;;;;;;110113;1254;54604;-65
2023/02/21 02:36:20;;;;;;;;;10.00;9.00;26.60;32.00;;;;;;109902;1254;49645;-64
2023/02/21 02:39:09;;;;;;;;;11.00;9.00;26.60;32.60;;;;;;109972;1253;49416;-64
2023/02/21 02:41:47;;;;;;;;;11.00;10.00;26.50;32.20;;;;;;110168;1250;45821;-65
2023/02/21 02:44:20;;;;;;;;;11.00;10.00;26.50;32.00;;;;;;110117;1254;55852;-64
2023/02/21 02:46:48;;;;;;;;;12.00;11.00;26.40;32.00;;;;;;109911;1250;53606;-64
2023/02/21 02:49:20;;;;;;;;;10.67;9.33;26.40;32.20;;;;;;109973;1254;49544;-64
2023/02/21 02:51:48;;;;;;;;;10.00;9.00;26.40;32.00;;;;;;110106;1249;49448;-64
2023/02/21 02:54:16;;;;;;;;;10.00;9.00;26.30;31.90;;;;;;110130;1250;45668;-64
2023/02/21 02:56:44;;;;;;;;;12.00;11.00;26.20;32.20;;;;;;109877;1250;56888;-65
2023/02/21 02:59:21;;;;;;;;;11.00;10.00;26.20;32.00;;;;;;109977;1254;54262;-65
2023/02/21 03:01:48;;;;;;;;;14.00;11.00;26.20;31.90;;;;;;110103;1254;49548;-64
2023/02/21 03:04:42;;;;;;;;;11.00;10.00;26.10;31.90;;;;;;110056;1250;49051;-65
2023/02/21 03:07:28;;;;;;;;;11.00;9.00;26.10;31.90;;;;;;109962;1250;46425;-67
2023/02/21 03:10:17;;;;;;;;;13.00;10.00;26.00;31.90;;;;;;110101;1254;56046;-65
2023/02/21 03:12:50;;;;;;;;;10.50;10.00;26.00;31.90;;;;;;110296;1254;54091;-65
2023/02/21 03:15:26;;;;;;;;;13.00;12.00;25.90;32.00;;;;;;109992;1250;49442;-64
2023/02/21 03:18:16;;;;;;;;;11.50;10.00;25.90;32.20;;;;;;110082;1256;49236;-65
2023/02/21 03:20:46;;;;;;;;;11.00;10.00;25.90;32.00;;;;;;110114;1254;45791;-64
2023/02/21 03:23:14;;;;;;;;;11.67;11.00;25.80;31.40;;;;;;110098;1254;56364;-64
2023/02/21 03:25:44;;;;;;;;;11.00;10.00;25.80;31.90;;;;;;109811;1256;53286;-64
2023/02/21 03:28:12;;;;;;;;;14.00;10.00;25.70;32.20;;;;;;110106;1256;49297;-64
2023/02/21 03:30:43;;;;;;;;;10.50;9.50;25.70;32.10;;;;;;110072;1250;49653;-65
2023/02/21 03:33:10;;;;;;;;;12.00;11.00;25.70;32.00;;;;;;110072;1254;45727;-66
2023/02/21 03:35:37;;;;;;;;;11.00;10.00;25.60;32.30;;;;;;109852;1250;55656;-64
2023/02/21 03:38:04;;;;;;;;;13.00;10.00;25.60;32.20;;;;;;109986;1250;53540;-64
2023/02/21 03:40:32;;;;;;;;;11.00;10.00;25.60;32.20;;;;;;110130;1254;49231;-64
2023/02/21 03:43:02;;;;;;;;;11.67;10.67;25.60;32.40;;;;;;110014;1254;48845;-64
2023/02/21 03:45:29;;;;;;;;;10.00;9.00;25.60;32.50;;;;;;109824;1254;46025;-63
2023/02/21 03:47:55;;;;;;;;;10.00;9.00;25.60;32.30;;;;;;110072;1250;55921;-63
2023/02/21 03:50:22;;;;;;;;;12.00;10.00;25.60;32.40;;;;;;110008;1254;54974;-64
2023/02/21 03:52:50;;;;;;;;;10.00;9.00;25.70;32.40;;;;;;110076;1250;49486;-64
2023/02/21 03:55:17;;;;;;;;;11.00;10.00;25.70;32.40;;;;;;109813;1250;49601;-64
2023/02/21 03:57:44;;;;;;;;;11.00;10.00;25.80;32.70;;;;;;110046;1254;45186;-64
2023/02/21 04:00:13;;;;;;;;;11.00;10.00;25.80;32.50;;;;;;110041;1250;55848;-63
2023/02/21 04:02:40;;;;;;;;;11.00;10.00;25.90;32.50;;;;;;110195;1250;53829;-65
2023/02/21 04:05:07;;;;;;;;;11.00;9.00;25.90;32.50;;;;;;109984;1250;49273;-65
2023/02/21 04:07:34;;;;;;;;;12.50;11.50;26.00;32.60;;;;;;110088;1253;50080;-64
2023/02/21 04:10:01;;;;;;;;;10.50;9.00;26.10;32.70;;;;;;110225;1254;45870;-64
2023/02/21 04:12:28;;;;;;;;;12.67;10.33;26.20;32.70;;;;;;110150;1254;55981;-63
2023/02/21 04:14:55;;;;;;;;;10.50;9.50;26.30;32.70;;;;;;109904;1250;54491;-63
2023/02/21 04:17:22;;;;;;;;;12.00;11.00;26.30;32.70;;;;;;110067;1250;49146;-65
2023/02/21 04:19:49;;;;;;;;;11.50;10.50;26.40;32.40;;;;;;110231;1254;49680;-70
2023/02/21 04:22:16;;;;;;;;;11.00;10.00;26.50;33.00;;;;;;110066;1254;45182;-69
2023/02/21 04:24:43;;;;;;;;;10.00;9.00;26.50;32.80;;;;;;110014;1250;55183;-64
2023/02/21 04:27:10;;;;;;;;;10.00;9.00;26.60;32.80;;;;;;109970;1250;55055;-65
2023/02/21 04:29:37;;;;;;;;;11.00;9.50;26.70;32.80;;;;;;110156;1254;49946;-64
2023/02/21 04:32:04;;;;;;;;;11.00;9.50;26.70;33.00;;;;;;110217;1254;49466;-63
2023/02/21 04:34:31;;;;;;;;;11.50;10.00;26.80;33.00;;;;;;110075;1254;45566;-64
2023/02/21 04:36:58;;;;;;;;;10.00;9.00;26.80;32.80;;;;;;109891;1250;54990;-67
2023/02/21 04:39:25;;;;;;;;;9.00;8.00;26.90;33.00;;;;;;110180;1255;54749;-65
2023/02/21 04:41:52;;;;;;;;;11.50;10.50;26.90;32.70;;;;;;110084;1254;49482;-66
2023/02/21 04:44:18;;;;;;;;;10.00;9.00;26.90;32.70;;;;;;110056;1250;49893;-66
2023/02/21 04:46:45;;;;;;;;;9.00;8.00;27.00;32.70;;;;;;109864;1250;45844;-66
2023/02/21 04:49:12;;;;;;;;;9.67;9.00;27.00;32.70;;;;;;110089;1250;55587;-66
2023/02/21 04:51:40;;;;;;;;;10.67;9.33;27.00;32.70;;;;;;110100;1254;54024;-65
2023/02/21 04:54:07;;;;;;;;;12.00;9.00;27.00;32.60;;;;;;110119;1250;48871;-67
2023/02/21 04:56:33;;;;;;;;;10.00;9.00;27.00;32.80;;;;;;109918;1254;49153;-65
2023/02/21 04:59:01;;;;;;;;;11.50;10.50;27.00;33.00;;;;;;110010;1250;45473;-66
2023/02/21 05:01:29;;;;;;;;;12.50;10.00;27.00;32.90;;;;;;109960;1256;55185;-66
2023/02/21 05:03:58;;;;;;;;;9.00;8.00;27.00;32.80;;;;;;110051;1253;54976;-66
2023/02/21 05:06:26;;;;;;;;;11.00;9.00;27.00;32.70;;;;;;109829;1254;49410;-68
2023/02/21 05:08:53;;;;;;;;;11.00;10.00;27.00;32.70;;;;;;110189;1254;49273;-66
2023/02/21 05:11:21;;;;;;;;;11.00;10.00;27.00;32.90;;;;;;110069;1250;46394;-66
2023/02/21 05:13:48;;;;;;;;;12.00;11.00;27.00;33.10;;;;;;110103;1251;55034;-66
2023/02/21 05:16:16;;;;;;;;;12.33;11.67;27.00;33.20;;;;;;109882;1254;54092;-66
2023/02/21 05:18:45;;;;;;;;;13.00;11.00;26.90;33.30;;;;;;110127;1254;49149;-63
2023/02/21 05:21:13;;;;;;;;;15.50;14.00;26.90;33.30;;;;;;110266;1250;49316;-64
2023/02/21 05:23:41;;;;;;;;;12.00;11.00;26.80;33.30;;;;;;110283;1254;45498;-72
2023/02/21 05:26:10;;;;;;;;;13.50;11.50;26.80;33.40;;;;;;110589;1250;56317;-66
2023/02/21 05:28:39;;;;;;;;;19.50;14.00;26.80;33.50;;;;;;110251;1250;54455;-67
2023/02/21 05:31:06;;;;;;;;;15.50;14.50;26.70;35.30;;;;;;110218;1254;49077;-65
2023/02/21 05:33:33;;;;;;;;;13.50;12.50;26.80;34.30;;;;;;110325;1254;48737;-72
2023/02/21 05:36:00;;;;;;;;;18.50;14.50;26.70;34.40;;;;;;110432;1250;46523;-64
2023/02/21 05:38:27;;;;;;;;;12.00;11.00;26.60;34.50;;;;;;110236;1254;55951;-65
2023/02/21 05:40:54;;;;;;;;;16.00;14.00;26.60;34.60;;;;;;110027;1254;53948;-64
2023/02/21 05:43:21;;;;;;;;;14.00;13.33;26.60;34.40;;;;;;110073;1250;50601;-69
2023/02/21 05:45:48;;;;;;;;;16.67;13.00;26.60;34.60;;;;;;110298;1254;48822;-66
2023/02/21 05:48:15;;;;;;;;;13.00;12.00;26.50;34.80;;;;;;110191;1250;46879;-69
2023/02/21 05:50:43;;;;;;;;;21.00;16.00;26.50;35.20;;;;;;110196;1249;56175;-66
2023/02/21 05:53:10;;;;;;;;;16.00;13.00;26.50;34.70;;;;;;110026;1250;54175;-67
2023/02/21 05:55:37;;;;;;;;;15.00;13.00;26.40;34.50;;;;;;110278;1250;49857;-62
2023/02/21 05:58:04;;;;;;;;;17.00;14.00;26.30;34.30;;;;;;110214;1254;49027;-66
2023/02/21 06:00:31;;;;;;;;;15.50;14.50;26.30;34.20;;;;;;110192;1250;46683;-63
2023/02/21 06:02:58;;;;;;;;;15.00;12.00;26.30;34.70;;;;;;110231;1251;55710;-62
2023/02/21 06:05:26;;;;;;;;;12.00;10.50;26.30;34.60;;;;;;110172;1254;53578;-62
2023/02/21 06:07:53;;;;;;;;;16.00;13.50;26.30;34.30;;;;;;110045;1254;49327;-62
2023/02/21 06:10:20;;;;;;;;;12.00;11.00;26.20;34.10;;;;;;110007;1254;49779;-61
2023/02/21 06:12:47;;;;;;;;;17.00;11.00;26.20;34.20;;;;;;109992;1250;45424;-64
2023/02/21 06:15:14;;;;;;;;;12.00;10.00;26.20;33.90;;;;;;109863;1250;55990;-64
2023/02/21 06:17:41;;;;;;;;;16.00;14.00;26.20;33.90;;;;;;110115;1251;54681;-63
2023/02/21 06:20:13;;;;;;;;;15.00;14.00;26.20;33.70;;;;;;110263;1250;50297;-69
2023/02/21 06:22:40;;;;;;;;;13.00;10.00;26.10;33.50;;;;;;110386;1251;49013;-62
2023/02/21 06:25:08;;;;;;;;;13.00;10.50;26.10;33.50;;;;;;109978;1250;45642;-64
2023/02/21 06:27:35;;;;;;;;;12.00;11.00;26.10;33.40;;;;;;110107;1254;55319;-62
2023/02/21 06:30:03;;;;;;;;;12.00;11.00;26.10;33.50;;;;;;110029;1256;55508;-63
2023/02/21 06:32:31;;;;;;;;;15.00;12.00;26.10;33.40;;;;;;110226;1251;49402;-63
2023/02/21 06:34:58;;;;;;;;;10.50;10.00;26.00;32.90;;;;;;109700;1250;621814;-63
2023/02/21 06:37:25;;;;;;;;;15.00;12.00;26.00;33.70;;;;;;110081;1251;45379;-62
2023/02/21 06:39:52;;;;;;;;;13.67;12.33;26.00;33.50;;;;;;109870;1253;55688;-63
2023/02/21 06:42:19;;;;;;;;;13.00;11.00;26.00;33.10;;;;;;110058;1250;54625;-63
2023/02/21 06:44:47;;;;;;;;;13.00;10.00;25.90;33.50;;;;;;109975;1250;49688;-62
2023/02/21 06:47:14;;;;;;;;;13.00;12.00;25.90;33.50;;;;;;109960;1254;50265;-62
2023/02/21 06:49:42;;;;;;;;;18.00;12.00;25.90;33.60;;;;;;111187;1251;46545;-63
2023/02/21 06:52:09;;;;;;;;;13.50;12.50;25.90;33.60;;;;;;110081;1254;56388;-64
2023/02/21 06:54:36;;;;;;;;;16.00;13.00;26.00;33.50;;;;;;110060;1250;53879;-63
2023/02/21 06:57:04;;;;;;;;;14.00;13.00;25.90;33.40;;;;;;110099;1250;49495;-63
2023/02/21 06:59:32;;;;;;;;;12.00;11.00;25.90;33.50;;;;;;110175;1250;50623;-63
2023/02/21 07:01:59;;;;;;;;;18.50;14.00;25.90;33.50;;;;;;110032;1254;46525;-64
2023/02/21 07:04:26;;;;;;;;;14.50;12.00;25.90;33.50;;;;;;110188;1250;55904;-63
2023/02/21 07:06:53;;;;;;;;;15.00;11.00;25.90;33.60;;;;;;110167;1250;54040;-63
2023/02/21 07:09:20;;;;;;;;;14.00;11.00;25.90;33.50;;;;;;110095;1250;49427;-63
2023/02/21 07:11:47;;;;;;;;;12.00;11.00;25.90;33.60;;;;;;110216;1254;50132;-64
2023/02/21 07:14:14;;;;;;;;;11.00;10.00;25.90;33.60;;;;;;110205;1254;45756;-64
2023/02/21 07:16:41;;;;;;;;;14.00;12.67;25.90;33.60;;;;;;110285;1250;56773;-63
2023/02/21 07:19:08;;;;;;;;;11.00;10.00;25.90;33.60;;;;;;110139;1250;54765;-63
2023/02/21 07:21:35;;;;;;;;;11.00;10.00;25.90;33.60;;;;;;110141;1254;49460;-64
2023/02/21 07:24:02;;;;;;;;;12.00;10.00;25.90;33.80;;;;;;110091;1254;49455;-64
2023/02/21 07:26:29;;;;;;;;;16.50;13.00;26.00;33.20;;;;;;110121;1254;45928;-63
2023/02/21 07:28:56;;;;;;;;;12.00;11.00;26.00;33.60;;;;;;110057;1254;57324;-64
2023/02/21 07:31:23;;;;;;;;;13.00;12.00;26.00;33.60;;;;;;110094;1254;53708;-64
2023/02/21 07:33:50;;;;;;;;;17.50;13.00;26.00;33.50;;;;;;110106;1254;49564;-63
2023/02/21 07:36:17;;;;;;;;;11.00;10.00;26.00;33.50;;;;;;110251;1250;49366;-64
2023/02/21 07:38:44;;;;;;;;;13.00;10.00;26.00;33.70;;;;;;110327;1250;46389;-63
2023/02/21 07:41:13;;;;;;;;;20.00;14.00;26.10;33.50;;;;;;110083;1250;56305;-63
2023/02/21 07:43:41;;;;;;;;;12.67;11.67;26.10;33.50;;;;;;110099;1254;53956;-62
2023/02/21 07:46:12;;;;;;;;;14.00;10.00;26.10;33.50;;;;;;110067;1254;49577;-63
2023/02/21 07:48:40;;;;;;;;;13.50;11.00;26.10;33.40;;;;;;110044;1256;49450;-63
2023/02/21 07:51:07;;;;;;;;;12.00;11.00;26.20;33.60;;;;;;110087;1251;45422;-63
2023/02/21 07:53:35;;;;;;;;;10.33;9.00;26.20;33.60;;;;;;110070;1254;55953;-63
2023/02/21 07:56:04;;;;;;;;;15.33;12.00;26.20;33.40;;;;;;110098;1250;53766;-63
2023/02/21 07:58:31;;;;;;;;;13.00;10.33;26.20;33.40;;;;;;110109;1250;50376;-63
2023/02/21 08:00:58;;;;;;;;;11.00;10.00;26.30;33.40;;;;;;110202;1256;50040;-63
2023/02/21 08:03:25;;;;;;;;;11.67;10.67;26.20;33.30;;;;;;110090;1254;45730;-64
2023/02/21 08:05:52;;;;;;;;;22.00;14.00;26.20;33.30;;;;;;110014;1252;55442;-66
2023/02/21 08:08:19;;;;;;;;;13.00;12.00;26.30;33.70;;;;;;110206;1254;54603;-65
2023/02/21 08:10:46;;;;;;;;;14.67;13.67;26.20;33.50;;;;;;110215;1250;49724;-65
2023/02/21 08:13:13;;;;;;;;;14.00;13.00;26.20;33.60;;;;;;110187;1253;49536;-65
2023/02/21 08:15:40;;;;;;;;;13.00;12.00;26.10;33.10;;;;;;110462;1254;45232;-65
2023/02/21 08:18:19;;;;;;;;;18.00;13.00;26.10;33.30;;;;;;110179;1250;55224;-65
2023/02/21 08:20:46;;;;;;;;;12.00;11.00;26.10;33.40;;;;;;110207;1250;54159;-65
2023/02/21 08:23:13;;;;;;;;;15.00;12.00;26.10;33.30;;;;;;110213;1250;49960;-71
2023/02/21 08:25:40;;;;;;;;;14.50;12.50;26.10;33.30;;;;;;110361;1250;49933;-64
2023/02/21 08:28:07;;;;;;;;;13.50;11.00;26.00;33.60;;;;;;110214;1254;45464;-71
2023/02/21 08:30:34;;;;;;;;;16.00;13.00;26.00;33.70;;;;;;110202;1250;55317;-69
2023/02/21 08:33:02;;;;;;;;;13.00;12.00;26.00;33.60;;;;;;110261;1254;54429;-67
2023/02/21 08:35:29;;;;;;;;;12.00;11.00;25.90;34.00;;;;;;110620;1254;49881;-68
2023/02/21 08:37:56;;;;;;;;;13.00;11.67;25.90;33.80;;;;;;110401;1250;49484;-71
2023/02/21 08:40:23;;;;;;;;;12.00;11.00;25.90;33.80;;;;;;110430;1254;46707;-72
2023/02/21 08:42:53;;;;;;;;;15.00;12.00;25.90;33.70;;;;;;110275;1250;55721;-72
2023/02/21 08:45:21;;;;;;;;;13.50;12.50;26.00;33.70;;;;;;110508;1254;53644;-74
2023/02/21 08:47:49;;;;;;;;;13.00;12.00;25.90;34.00;;;;;;110290;1254;49120;-73
2023/02/21 08:50:17;;;;;;;;;15.00;12.00;25.90;34.40;;;;;;110215;1254;49108;-73
2023/02/21 08:52:46;;;;;;;;;11.00;10.00;25.90;34.00;;;;;;110219;1250;45929;-73
2023/02/21 08:55:13;;;;;;;;;11.00;10.00;25.90;34.20;;;;;;110496;1250;55239;-73
2023/02/21 08:57:40;;;;;;;;;15.00;12.00;25.80;34.00;;;;;;110206;1254;54118;-72
2023/02/21 09:00:10;;;;;;;;;13.00;10.50;25.80;34.00;;;;;;110183;1250;48991;-72
2023/02/21 09:02:40;;;;;;;;;13.50;12.00;25.80;34.00;;;;;;110301;1254;49114;-72
2023/02/21 09:05:10;;;;;;;;;12.50;11.50;25.70;34.10;;;;;;110488;1254;45888;-65
2023/02/21 09:07:38;;;;;;;;;13.00;10.00;25.70;34.10;;;;;;110282;1254;55482;-68
2023/02/21 09:10:06;;;;;;;;;13.00;12.00;25.70;34.30;;;;;;110443;1250;54808;-65
2023/02/21 09:12:33;;;;;;;;;15.00;11.50;25.60;34.10;;;;;;110016;1253;49842;-65
2023/02/21 09:15:00;;;;;;;;;12.00;11.00;25.50;34.20;;;;;;110068;1254;49660;-63
2023/02/21 09:17:27;;;;;;;;;13.50;10.50;25.50;34.30;;;;;;110122;1254;45879;-67
2023/02/21 09:19:54;;;;;;;;;14.00;11.00;25.50;34.30;;;;;;110158;1250;57624;-66
2023/02/21 09:22:21;;;;;;;;;13.00;10.00;25.50;34.20;;;;;;110209;1250;54529;-67
2023/02/21 09:24:48;;;;;;;;;12.50;11.00;25.50;34.20;;;;;;110177;1254;49438;-66
2023/02/21 09:27:16;;;;;;;;;13.33;11.00;25.60;34.20;;;;;;110428;1249;49599;-69
2023/02/21 09:29:44;;;;;;;;;11.00;10.00;25.50;34.30;;;;;;110321;1250;45550;-70
2023/02/21 09:32:11;;;;;;;;;12.00;11.00;25.50;34.20;;;;;;110195;1254;55902;-68
2023/02/21 09:34:38;;;;;;;;;13.00;12.00;25.50;34.40;;;;;;110220;1250;53518;-68
2023/02/21 09:37:05;;;;;;;;;12.00;11.00;25.50;34.40;;;;;;110397;1254;49425;-67
2023/02/21 09:39:32;;;;;;;;;15.00;13.67;25.50;34.10;;;;;;110161;1254;49132;-68
2023/02/21 09:41:59;;;;;;;;;12.00;10.67;25.60;34.30;;;;;;110171;1250;45639;-67
2023/02/21 09:44:27;;;;;;;;;12.00;11.00;25.60;34.40;;;;;;110188;1254;55072;-69
2023/02/21 09:47:00;;;;;;;;;12.00;10.67;25.60;34.70;;;;;;110439;1254;54275;-75
2023/02/21 09:49:34;;;;;;;;;13.00;10.00;25.60;34.30;;;;;;110309;1251;49265;-67
2023/02/21 09:52:02;;;;;;;;;12.00;10.00;25.70;34.40;;;;;;110209;1253;50303;-67
2023/02/21 09:54:42;;;;;;;;;13.00;10.00;25.70;34.30;;;;;;110326;1254;45561;-67
2023/02/21 09:57:12;;;;;;;;;12.00;11.00;25.80;34.30;;;;;;110452;1256;55558;-69
2023/02/21 09:59:40;;;;;;;;;13.00;12.00;25.80;34.30;;;;;;110196;1250;54013;-66
2023/02/21 10:02:09;;;;;;;;;11.00;10.00;25.80;34.30;;;;;;110258;1254;49209;-71
2023/02/21 10:04:52;;;;;;;;;14.00;11.00;25.80;34.30;;;;;;110401;1250;50972;-70
2023/02/21 10:07:56;;;;;;;;;17.00;14.00;25.90;34.30;;;;;;110385;1250;45584;-68
2023/02/21 10:10:38;;;;;;;;;11.00;10.00;25.90;34.20;;;;;;110229;1254;56307;-70
2023/02/21 10:13:14;;;;;;;;;11.00;10.00;25.90;34.10;;;;;;110346;1252;53267;-69
2023/02/21 10:15:53;;;;;;;;;11.00;10.00;26.00;34.00;;;;;;110596;1251;49759;-69
2023/02/21 10:18:47;;;;;;;;;16.50;14.00;26.00;34.00;;;;;;110180;1250;49375;-71
2023/02/21 10:21:35;;;;;;;;;22.00;18.00;26.00;34.00;;;;;;110179;1250;45487;-70
2023/02/21 10:24:11;;;;;;;;;18.00;14.67;26.10;33.90;;;;;;110031;1254;56116;-68
2023/02/21 10:26:41;;;;;;;;;15.50;14.50;26.10;33.60;;;;;;110545;1252;54426;-68
2023/02/21 10:29:37;;;;;;;;;19.00;14.00;26.10;33.50;;;;;;110245;1254;49513;-68
2023/02/21 10:32:04;;;;;;;;;15.50;13.50;26.20;33.60;;;;;;110288;1250;50124;-68
2023/02/21 10:34:32;;;;;;;;;15.33;12.33;26.20;33.40;;;;;;110209;1254;45558;-65
2023/02/21 10:37:25;;;;;;;;;12.00;10.00;26.20;33.90;;;;;;110341;1255;55977;-65
2023/02/21 10:39:57;;;;;;;;;12.67;11.33;26.30;33.90;;;;;;110129;1251;53610;-66
2023/02/21 10:42:35;;;;;;;;;14.00;11.00;26.30;34.20;;;;;;110178;1250;50192;-69
2023/02/21 10:45:03;;;;;;;;;14.33;13.33;26.40;33.90;;;;;;110003;1254;49190;-65
2023/02/21 10:47:44;;;;;;;;;10.00;9.00;26.40;31.90;;;;;;110083;1251;46585;-69
2023/02/21 10:50:11;;;;;;;;;12.50;11.50;26.40;31.10;;;;;;110057;1256;55985;-68
2023/02/21 10:52:47;;;;;;;;;13.67;11.33;26.50;30.70;;;;;;110148;1250;53682;-73
2023/02/21 10:55:18;;;;;;;;;13.00;10.00;26.40;30.50;;;;;;110125;1250;50081;-68
2023/02/21 10:57:50;;;;;;;;;11.00;10.00;26.40;30.40;;;;;;110202;1253;49199;-75
2023/02/21 11:00:33;;;;;;;;;12.00;11.00;26.40;30.20;;;;;;110077;1254;45805;-66
2023/02/21 11:03:17;;;;;;;;;13.00;11.00;26.50;30.40;;;;;;109974;1251;55413;-68
2023/02/21 11:05:51;;;;;;;;;13.50;11.50;26.40;30.50;;;;;;110194;1250;54347;-72
2023/02/21 11:08:50;;;;;;;;;11.50;10.50;26.40;30.20;;;;;;110150;1256;50787;-68
2023/02/21 11:11:31;;;;;;;;;12.00;11.00;26.50;30.10;;;;;;109835;1254;49290;-73
2023/02/21 11:14:18;;;;;;;;;14.67;10.33;26.50;30.10;;;;;;110311;1250;45787;-71
2023/02/21 11:17:03;;;;;;;;;14.00;11.50;26.50;30.00;;;;;;110480;1254;55430;-70
2023/02/21 11:19:41;;;;;;;;;13.75;11.25;26.50;30.10;;;;;;110174;1250;55156;-69
2023/02/21 11:22:09;;;;;;;;;13.00;10.00;26.50;30.00;;;;;;110356;1254;49073;-73
2023/02/21 11:25:05;;;;;;;;;13.00;10.00;26.60;30.00;;;;;;110217;1252;49654;-71
2023/02/21 11:27:35;;;;;;;;;11.00;10.00;26.60;30.10;;;;;;109935;1254;46561;-71
2023/02/21 11:30:13;;;;;;;;;10.00;9.00;26.60;30.00;;;;;;110191;1250;55876;-71
2023/02/21 11:32:41;;;;;;;;;12.00;10.50;26.60;30.00;;;;;;110279;1250;53452;-72
2023/02/21 11:35:21;;;;;;;;;10.00;9.00;26.60;30.10;;;;;;110060;1250;49184;-70
2023/02/21 11:38:00;;;;;;;;;11.00;10.00;26.60;30.20;;;;;;110180;1254;49425;-69
2023/02/21 11:40:41;;;;;;;;;13.00;11.00;26.60;30.10;;;;;;110190;1250;46231;-68
2023/02/21 11:43:11;;;;;;;;;15.00;12.00;26.60;30.10;;;;;;110041;1256;56198;-71
2023/02/21 11:45:54;;;;;;;;;11.00;10.00;26.50;30.10;;;;;;110656;1250;53606;-74
2023/02/21 11:48:26;;;;;;;;;12.00;11.00;26.50;30.20;;;;;;110155;1256;49755;-70
2023/02/21 11:50:54;;;;;;;;;11.00;10.00;26.50;30.20;;;;;;110243;1254;49331;-66
2023/02/21 11:53:31;;;;;;;;;12.00;9.00;26.60;30.50;;;;;;110112;1253;46934;-66
2023/02/21 11:56:37;;;;;;;;;12.50;10.00;26.60;30.60;;;;;;110321;1254;55057;-67
2023/02/21 11:59:34;;;;;;;;;12.00;10.00;26.60;30.50;;;;;;110127;1254;54614;-64
2023/02/21 12:02:12;;;;;;;;;10.50;9.00;26.70;30.90;;;;;;110134;1254;49350;-70
2023/02/21 12:05:01;;;;;;;;;11.50;10.00;26.70;31.20;;;;;;110363;1250;50101;-66
2023/02/21 12:07:46;;;;;;;;;16.00;13.00;26.60;31.00;;;;;;110145;1254;45629;-69
2023/02/21 12:10:34;;;;;;;;;10.67;9.67;26.60;30.90;;;;;;110152;1254;55219;-69
2023/02/21 12:13:25;;;;;;;;;12.00;10.00;26.60;30.90;;;;;;110174;1250;54332;-74
2023/02/21 12:15:54;;;;;;;;;10.00;9.00;26.60;30.80;;;;;;110324;1254;50394;-69
2023/02/21 12:18:53;;;;;;;;;11.00;10.00;26.60;30.80;;;;;;110232;1250;49171;-67
2023/02/21 12:21:39;;;;;;;;;11.00;10.00;26.60;30.70;;;;;;110232;1254;46333;-67
2023/02/21 12:24:43;;;;;;;;;14.00;12.00;26.60;30.60;;;;;;110062;1251;56467;-67
2023/02/21 12:27:16;;;;;;;;;13.00;12.00;26.60;30.50;;;;;;109998;1254;53715;-64
2023/02/21 12:30:10;;;;;;;;;13.00;10.67;26.60;30.70;;;;;;110186;1250;49930;-69
2023/02/21 12:32:43;;;;;;;;;11.50;10.50;26.60;30.60;;;;;;110099;1254;48907;-72
2023/02/21 12:35:47;;;;;;;;;13.33;11.00;26.60;30.50;;;;;;110632;1250;45814;-69
2023/02/21 12:38:32;;;;;;;;;11.67;10.67;26.60;30.60;;;;;;111010;1250;55528;-71
2023/02/21 12:41:20;;;;;;;;;14.00;11.00;26.60;30.60;;;;;;110343;1250;54736;-69
2023/02/21 12:44:14;;;;;;;;;10.50;9.50;26.70;30.40;;;;;;110152;1250;50274;-68
2023/02/21 12:47:09;;;;;;;;;13.00;12.00;26.70;30.50;;;;;;110438;1254;49555;-66
2023/02/21 12:49:42;;;;;;;;;24.00;4.00;26.70;30.60;;;;;;110077;1250;46745;-73
2023/02/21 12:52:23;;;;;;;;;14.00;2.00;26.60;30.50;;;;;;110226;1250;56348;-66
2023/02/21 12:55:17;;;;;;;;;11.00;10.00;26.60;30.60;;;;;;110259;1250;53412;-67
2023/02/21 12:58:00;;;;;;;;;12.00;10.00;26.70;31.20;;;;;;110274;1254;49611;-70
2023/02/21 13:00:27;;;;;;;;;14.00;10.50;26.80;31.50;;;;;;110309;1254;49957;-67
2023/02/21 13:03:10;;;;;;;;;11.50;10.50;26.90;30.90;;;;;;110250;1250;45535;-66
2023/02/21 13:05:44;;;;;;;;;11.50;10.50;27.00;30.60;;;;;;110247;1250;55521;-67
2023/02/21 13:08:33;;;;;;;;;13.00;12.00;27.20;30.70;;;;;;110115;1251;53946;-69
2023/02/21 13:11:11;;;;;;;;;13.50;11.00;27.10;30.60;;;;;;110234;1250;50148;-68
2023/02/21 13:13:39;;;;;;;;;15.00;10.00;27.10;30.50;;;;;;110376;1254;49396;-69
2023/02/21 13:16:10;;;;;;;;;12.00;11.00;27.10;30.60;;;;;;110483;1254;45607;-69
2023/02/21 13:18:48;;;;;;;;;12.50;11.00;27.00;30.80;;;;;;110248;1250;55061;-66
2023/02/21 13:21:52;;;;;;;;;12.00;10.00;27.00;30.70;;;;;;110093;1254;54485;-70
2023/02/21 13:24:32;;;;;;;;;11.00;10.00;26.90;30.70;;;;;;109542;1263;49995;-67
2023/02/21 13:27:05;;;;;;;;;11.00;10.00;26.90;30.70;;;;;;110318;1254;50216;-69
2023/02/21 13:29:34;;;;;;;;;14.00;12.00;26.80;31.00;;;;;;110250;1254;45672;-71
2023/02/21 13:32:16;;;;;;;;;12.00;11.00;26.60;30.80;;;;;;110007;1254;56078;-66
2023/02/21 13:34:47;;;;;;;;;12.00;11.00;26.60;31.00;;;;;;110223;1254;54886;-67
2023/02/21 13:37:23;;;;;;;;;11.00;10.00;26.40;31.00;;;;;;110280;1254;49660;-64
2023/02/21 13:39:52;;;;;;;;;12.33;11.33;26.40;31.20;;;;;;110130;1250;49164;-64
2023/02/21 13:42:20;;;;;;;;;;;26.30;31.20;;;;;;110180;1254;46877;-68
2023/02/21 13:44:50;;;;;;;;;15.00;12.00;26.20;31.00;;;;;;110530;1254;56518;-66
2023/02/21 13:47:21;;;;;;;;;11.00;10.00;26.00;31.10;;;;;;110191;1250;53710;-65
2023/02/21 13:49:56;;;;;;;;;13.00;12.00;25.90;31.40;;;;;;110298;1254;50804;-65
2023/02/21 13:52:33;;;;;;;;;13.00;11.00;25.70;31.40;;;;;;110383;1254;49663;-69
2023/02/21 13:58:01;;;;;;;;;11.50;9.00;25.50;32.10;;;;;;110281;1252;56087;-69
2023/02/21 14:00:29;;;;;;;;;13.00;12.00;25.50;32.10;;;;;;110146;1250;53572;-67
2023/02/21 14:02:59;;;;;;;;;15.00;12.00;25.40;32.50;;;;;;110520;1250;49259;-67
2023/02/21 14:05:49;;;;;;;;;13.00;12.00;25.40;32.70;;;;;;110394;1250;50095;-68
2023/02/21 14:08:31;;;;;;;;;12.00;11.00;25.40;32.90;;;;;;110275;1250;46190;-66
2023/02/21 14:11:12;;;;;;;;;11.50;10.00;25.50;33.00;;;;;;110191;1254;55402;-67
2023/02/21 14:13:57;;;;;;;;;14.00;10.00;25.50;33.20;;;;;;110319;1250;54785;-66
2023/02/21 14:16:51;;;;;;;;;15.67;11.00;25.40;33.20;;;;;;110336;1250;50551;-67
2023/02/21 14:19:23;;;;;;;;;11.00;10.00;25.50;33.50;;;;;;110310;1254;49786;-66
2023/02/21 14:21:58;;;;;;;;;10.00;9.00;25.50;33.60;;;;;;110390;1251;45581;-68
2023/02/21 14:24:27;;;;;;;;;9.25;8.00;25.50;34.00;;;;;;110256;1251;55541;-67
2023/02/21 14:26:56;;;;;;;;;10.00;9.00;25.50;33.90;;;;;;110359;1251;54790;-68
2023/02/21 14:29:39;;;;;;;;;14.00;11.00;25.50;33.90;;;;;;110485;1250;49154;-68
2023/02/21 14:32:09;;;;;;;;;12.00;9.00;25.50;33.90;;;;;;110214;1255;49610;-69
2023/02/21 14:34:53;;;;;;;;;10.00;9.00;25.60;34.10;;;;;;110339;1250;45988;-66
2023/02/21 14:37:39;;;;;;;;;11.00;10.00;25.50;34.10;;;;;;110323;1254;56881;-68
2023/02/21 14:40:09;;;;;;;;;12.67;11.67;25.50;34.10;;;;;;110356;1250;54807;-67
2023/02/21 14:42:51;;;;;;;;;11.50;10.00;25.50;34.30;;;;;;110358;1254;50903;-69
2023/02/21 14:45:48;;;;;;;;;12.00;11.00;25.50;34.40;;;;;;110446;1254;49305;-65
2023/02/21 14:48:49;;;;;;;;;14.50;11.50;25.50;34.50;;;;;;110314;1250;46085;-67
2023/02/21 14:51:29;;;;;;;;;10.00;9.00;25.50;34.70;;;;;;110350;1250;55627;-66
2023/02/21 14:54:20;;;;;;;;;15.00;10.50;25.50;34.80;;;;;;110331;1250;54141;-65
2023/02/21 14:57:33;;;;;;;;;13.25;12.00;25.50;35.10;;;;;;110294;1250;49554;-67
2023/02/21 15:00:15;;;;;;;;;11.00;10.00;25.50;35.00;;;;;;110186;1250;49342;-67
2023/02/21 15:03:02;;;;;;;;;14.00;12.50;25.50;35.00;;;;;;110282;1250;45499;-66
2023/02/21 15:05:37;;;;;;;;;14.00;11.00;25.50;34.90;;;;;;110309;1254;55634;-67
2023/02/21 15:08:11;;;;;;;;;13.00;12.00;25.50;35.10;;;;;;110180;1250;54184;-67